Time;durP1;ratioP1;P1;durP2;ratioP2;P2;SDS_P1;SDS_P2;PMS_P1;PMS_P2;Temp;Humidity;BMP_temperature;BMP_pressure;BME280_temperature;BME280_humidity;BME280_pressure;Samples;Min_cycle;Max_cycle;Signal;HPM_P1;HPM_P2
2022/06/06 00:00:25;;;;;;;5.45;4.18;;;;;;;18.19;71.84;98984.03;2617957;54;20036;-67
2022/06/06 00:02:55;;;;;;;4.25;3.95;;;;;;;18.19;71.96;98981.34;2618212;54;20070;-66
2022/06/06 00:05:25;;;;;;;10.48;4.93;;;;;;;18.19;71.91;98968.78;2618810;54;20027;-66
2022/06/06 00:07:54;;;;;;;6.97;4.25;;;;;;;18.20;71.84;98964.25;2618792;54;20038;-66
2022/06/06 00:10:24;;;;;;;5.75;4.35;;;;;;;18.10;71.79;98962.19;2618832;54;20030;-67
2022/06/06 00:12:54;;;;;;;5.32;4.60;;;;;;;18.15;72.20;98966.81;2618476;46;20042;-66
2022/06/06 00:15:26;;;;;;;5.38;4.60;;;;;;;18.12;71.85;98957.41;2618468;47;20038;-65
2022/06/06 00:17:56;;;;;;;5.78;4.53;;;;;;;18.12;71.85;98953.91;2619153;54;20039;-67
2022/06/06 00:20:26;;;;;;;5.25;4.70;;;;;;;18.12;71.99;98960.06;2619235;54;20030;-66
2022/06/06 00:22:56;;;;;;;12.10;4.63;;;;;;;18.10;72.56;98956.84;2618933;54;20066;-66
2022/06/06 00:25:26;;;;;;;6.47;4.70;;;;;;;18.14;72.21;98962.53;2619075;54;20026;-66
2022/06/06 00:27:55;;;;;;;5.72;4.57;;;;;;;18.12;72.41;98948.56;2619155;54;20030;-67
2022/06/06 00:30:28;;;;;;;7.80;4.55;;;;;;;18.18;72.59;98945.75;2618973;54;20027;-67
2022/06/06 00:35:39;;;;;;;7.60;4.85;;;;;;;18.15;72.38;98948.91;2618743;47;20027;-67
2022/06/06 00:38:09;;;;;;;9.18;6.15;;;;;;;18.09;72.72;98944.53;2618804;54;20035;-66
2022/06/06 00:40:39;;;;;;;6.50;5.07;;;;;;;18.06;72.73;98945.00;2618818;54;20553;-67
2022/06/06 00:43:08;;;;;;;6.45;5.47;;;;;;;18.06;72.79;98943.13;2619313;54;20045;-66
2022/06/06 00:45:42;;;;;;;5.63;5.07;;;;;;;17.99;73.35;98939.75;2618473;47;20042;-67
2022/06/06 00:48:17;;;;;;;7.88;4.78;;;;;;;17.98;73.15;98934.66;2618862;54;20031;-66
2022/06/06 00:50:54;;;;;;;8.25;5.80;;;;;;;17.98;73.25;98934.66;2618461;54;20034;-66
2022/06/06 00:53:35;;;;;;;5.50;4.93;;;;;;;18.00;73.10;98938.75;2619399;54;20034;-68
2022/06/06 00:56:12;;;;;;;6.00;5.43;;;;;;;17.99;73.33;98928.25;2619544;39;20500;-67
2022/06/06 00:58:42;;;;;;;5.90;5.30;;;;;;;18.02;73.03;98938.50;2618888;54;20039;-66
2022/06/06 01:01:15;;;;;;;6.95;5.70;;;;;;;18.01;72.92;98931.53;2618509;47;20029;-66
2022/06/06 01:03:45;;;;;;;6.45;5.30;;;;;;;17.96;73.17;98939.41;2618976;54;20063;-66
2022/06/06 01:06:19;;;;;;;7.72;5.65;;;;;;;17.91;73.30;98928.63;2618433;47;20539;-67
2022/06/06 01:08:50;;;;;;;8.25;5.35;;;;;;;17.89;73.37;98928.06;2619019;54;20027;-66
2022/06/06 01:11:20;;;;;;;6.13;5.20;;;;;;;17.80;73.61;98924.97;2618872;39;20415;-66
2022/06/06 01:13:50;;;;;;;6.75;5.70;;;;;;;17.78;74.15;98919.03;2619127;39;20454;-67
2022/06/06 01:16:38;;;;;;;7.32;6.00;;;;;;;17.74;73.98;98913.31;2618816;54;20538;-66
2022/06/06 01:19:30;;;;;;;7.15;6.25;;;;;;;17.74;74.46;98904.47;2618396;54;20033;-66
2022/06/06 01:22:30;;;;;;;7.57;6.38;;;;;;;17.68;74.58;98908.91;2618040;47;20023;-67
2022/06/06 01:25:26;;;;;;;7.72;5.90;;;;;;;17.67;74.49;98906.44;2618948;54;20643;-66
2022/06/06 01:28:02;;;;;;;10.32;7.22;;;;;;;17.62;74.31;98904.50;2619473;54;20049;-67
2022/06/06 01:30:39;;;;;;;8.32;6.40;;;;;;;17.56;74.70;98906.25;2619682;54;20038;-65
2022/06/06 01:33:14;;;;;;;7.97;7.03;;;;;;;17.57;74.75;98909.72;2619623;54;20565;-65
2022/06/06 01:35:46;;;;;;;10.50;6.60;;;;;;;17.58;74.82;98908.69;2619811;54;20027;-66
2022/06/06 01:38:20;;;;;;;9.63;7.00;;;;;;;17.52;74.69;98902.44;2619133;54;20042;-66
2022/06/06 01:40:54;;;;;;;;;;;;;;;17.52;74.60;98906.97;2619545;54;20027;-66
2022/06/06 01:43:29;;;;;;;11.38;7.25;;;;;;;17.52;74.53;98906.97;2619191;54;19938;-66
2022/06/06 01:46:04;;;;;;;10.20;7.57;;;;;;;17.47;74.66;98899.66;2619390;54;20061;-66
2022/06/06 01:48:37;;;;;;;10.00;7.55;;;;;;;17.44;75.17;98894.78;2618848;54;20566;-66
2022/06/06 01:51:10;;;;;;;8.35;7.45;;;;;;;17.38;75.31;98889.53;2618545;54;20146;-66
2022/06/06 01:53:41;;;;;;;10.35;7.20;;;;;;;17.33;75.38;98888.38;2619137;39;20426;-66
2022/06/06 01:56:15;;;;;;;10.55;7.45;;;;;;;17.25;75.62;98895.94;2619501;54;20150;-66
2022/06/06 01:58:45;;;;;;;10.43;7.53;;;;;;;17.27;75.81;98891.19;2619143;54;20039;-65
2022/06/06 02:01:17;;;;;;;10.45;7.35;;;;;;;17.29;75.73;98889.09;2620852;54;20041;-66
2022/06/06 02:03:48;;;;;;;10.13;7.13;;;;;;;17.33;75.60;98890.25;2621338;54;20039;-66
2022/06/06 02:06:18;;;;;;;7.90;7.10;;;;;;;17.35;75.95;98901.53;2619282;54;20045;-66
2022/06/06 02:08:50;;;;;;;8.90;7.20;;;;;;;17.41;75.98;98908.59;2619936;47;20031;-66
2022/06/06 02:11:21;;;;;;;11.25;7.43;;;;;;;17.47;75.52;98898.81;2620703;54;20034;-68
2022/06/06 02:13:51;;;;;;;7.32;6.57;;;;;;;17.52;75.23;98899.75;2620682;54;20031;-66
2022/06/06 02:16:23;;;;;;;8.45;6.75;;;;;;;17.53;75.62;98890.69;2620483;54;20030;-67
2022/06/06 02:18:53;;;;;;;7.78;6.07;;;;;;;17.51;75.42;98890.13;2619097;54;20026;-66
2022/06/06 02:21:25;;;;;;;8.55;6.95;;;;;;;17.51;75.40;98902.63;2620006;54;20085;-67
2022/06/06 02:23:54;;;;;;;11.30;7.32;;;;;;;17.49;75.50;98897.53;2619255;54;20026;-66
2022/06/06 02:26:24;;;;;;;13.80;7.55;;;;;;;17.51;75.51;98892.78;2619008;54;20038;-66
2022/06/06 02:28:54;;;;;;;9.48;6.72;;;;;;;17.50;75.47;98896.47;2619171;54;20069;-66
2022/06/06 02:31:26;;;;;;;9.82;7.30;;;;;;;17.53;75.83;98892.53;2619468;54;20041;-66
2022/06/06 02:33:56;;;;;;;9.05;7.22;;;;;;;17.58;75.65;98893.44;2620391;54;20034;-67
2022/06/06 02:36:27;;;;;;;8.43;6.53;;;;;;;17.62;75.52;98890.31;2621995;54;20042;-65
2022/06/06 02:38:56;;;;;;;10.05;7.65;;;;;;;17.61;75.84;98894.84;2621114;54;20034;-66
2022/06/06 02:41:28;;;;;;;9.20;7.10;;;;;;;17.68;75.73;98890.19;2622568;54;20046;-68
2022/06/06 02:43:58;;;;;;;8.35;7.55;;;;;;;17.71;75.30;98892.38;2622662;54;20042;-65
2022/06/06 02:46:31;;;;;;;14.00;7.45;;;;;;;17.71;75.12;98889.69;2622439;54;20065;-66
2022/06/06 02:49:00;;;;;;;7.50;6.80;;;;;;;17.72;75.35;98891.34;2623141;46;20058;-66
2022/06/06 02:51:30;;;;;;;7.97;7.25;;;;;;;17.79;75.13;98889.34;2621986;54;20030;-65
2022/06/06 02:54:00;;;;;;;8.50;7.65;;;;;;;17.77;75.12;98891.47;2621904;54;20542;-66
2022/06/06 02:56:30;;;;;;;8.43;6.50;;;;;;;17.76;75.23;98895.19;2621534;54;20034;-66
2022/06/06 02:59:09;;;;;;;11.65;7.75;;;;;;;17.74;75.16;98893.78;2621047;54;20038;-66
2022/06/06 03:01:42;;;;;;;9.57;7.63;;;;;;;17.68;75.04;98892.88;2621850;54;20034;-66
2022/06/06 03:04:12;;;;;;;12.25;7.38;;;;;;;17.58;74.79;98896.13;2621497;54;20031;-66
2022/06/06 03:06:55;;;;;;;8.10;7.03;;;;;;;17.55;75.28;98887.75;2621386;54;20034;-66
2022/06/06 03:09:36;;;;;;;6.83;6.20;;;;;;;17.50;74.24;98890.34;2620928;54;20078;-66
2022/06/06 03:12:22;;;;;;;7.30;6.63;;;;;;;17.48;74.72;98885.22;2621857;54;20298;-65
2022/06/06 03:15:09;;;;;;;6.95;6.10;;;;;;;17.47;74.79;98894.31;2621633;54;20034;-67
2022/06/06 03:20:49;;;;;;;7.95;7.13;;;;;;;17.31;73.72;98898.50;2621553;54;20033;-66
2022/06/06 03:23:27;;;;;;;7.07;6.35;;;;;;;17.31;73.99;98897.69;2620903;54;20045;-65
2022/06/06 03:26:04;;;;;;;15.55;6.55;;;;;;;17.30;73.96;98886.16;2619113;54;20032;-66
2022/06/06 03:28:43;;;;;;;8.18;6.70;;;;;;;17.25;73.75;98891.41;2619146;54;20106;-65
2022/06/06 03:31:25;;;;;;;7.55;6.57;;;;;;;17.27;73.91;98883.19;2618559;54;20049;-66
2022/06/06 03:34:04;;;;;;;8.98;6.13;;;;;;;17.33;73.66;98880.38;2620321;39;20419;-66
2022/06/06 03:36:40;;;;;;;7.43;5.78;;;;;;;17.40;73.96;98880.25;2622054;54;20038;-66
2022/06/06 03:39:16;;;;;;;7.93;6.68;;;;;;;17.48;73.17;98893.25;2617750;47;20549;-67
2022/06/06 03:41:59;;;;;;;8.27;5.70;;;;;;;17.50;73.17;98899.16;2620596;39;20442;-66
2022/06/06 03:44:44;;;;;;;7.43;6.38;;;;;;;17.56;73.52;98900.09;2620775;54;20061;-67
2022/06/06 03:47:26;;;;;;;15.00;9.88;;;;;;;17.62;72.81;98893.00;2620964;39;20447;-67
2022/06/06 03:50:09;;;;;;;7.55;6.80;;;;;;;17.61;73.44;98894.84;2620648;54;20134;-67
2022/06/06 03:52:45;;;;;;;9.15;6.22;;;;;;;17.64;73.31;98901.59;2622637;54;20126;-66
2022/06/06 03:55:30;;;;;;;9.23;6.30;;;;;;;17.65;72.91;98912.03;2623564;54;20030;-66
2022/06/06 03:58:03;;;;;;;7.18;6.28;;;;;;;17.63;72.65;98907.97;2623550;54;20041;-67
2022/06/06 04:00:34;;;;;;;6.40;5.80;;;;;;;17.61;73.19;98910.09;2623700;54;20034;-65
2022/06/06 04:03:07;;;;;;;7.18;6.05;;;;;;;17.60;73.13;98906.59;2622906;54;20030;-67
2022/06/06 04:05:41;;;;;;;7.15;6.18;;;;;;;17.62;73.24;98911.69;2621037;54;20081;-65
2022/06/06 04:08:11;;;;;;;7.80;5.60;;;;;;;17.72;72.64;98919.94;2620246;54;20030;-66
2022/06/06 04:10:50;;;;;;;7.38;6.40;;;;;;;17.67;72.57;98909.13;2620172;46;20046;-65
2022/06/06 04:13:40;;;;;;;8.63;6.22;;;;;;;17.68;72.46;98911.59;2620715;54;20604;-65
2022/06/06 04:16:23;;;;;;;7.95;6.10;;;;;;;17.76;72.79;98915.78;2620699;54;20590;-65
2022/06/06 04:19:06;;;;;;;7.35;5.93;;;;;;;17.85;72.27;98910.88;2619854;54;20038;-66
2022/06/06 04:21:46;;;;;;;7.95;5.80;;;;;;;17.79;72.53;98917.97;2622995;54;20035;-65
2022/06/06 04:24:32;;;;;;;7.43;6.22;;;;;;;17.73;72.37;98921.56;2623151;54;20590;-64
2022/06/06 04:27:09;;;;;;;6.38;5.50;;;;;;;17.65;72.29;98922.72;2622673;54;20593;-64
2022/06/06 04:29:45;;;;;;;7.15;5.70;;;;;;;17.61;72.57;98921.59;2622938;54;20057;-67
2022/06/06 04:32:20;;;;;;;7.75;6.00;;;;;;;17.59;72.49;98921.00;2622829;54;20550;-66
2022/06/06 04:34:56;;;;;;;6.50;5.85;;;;;;;17.57;72.63;98921.22;2623184;54;20042;-65
2022/06/06 04:37:36;;;;;;;6.80;6.13;;;;;;;17.58;72.64;98924.72;2624276;54;20034;-65
2022/06/06 04:40:16;;;;;;;7.20;5.60;;;;;;;17.56;72.82;98924.16;2623554;47;20034;-66
2022/06/06 04:42:55;;;;;;;7.18;5.78;;;;;;;17.61;72.96;98920.78;2625324;54;20137;-65
2022/06/06 04:45:34;;;;;;;7.72;5.80;;;;;;;17.63;72.95;98919.47;2626021;54;20027;-65
2022/06/06 04:48:06;;;;;;;7.35;6.35;;;;;;;17.70;72.46;98904.13;2624518;54;20034;-65
2022/06/06 04:50:36;;;;;;;7.53;6.15;;;;;;;17.74;72.58;98913.31;2621048;54;20030;-66
2022/06/06 04:53:13;;;;;;;7.50;6.00;;;;;;;17.74;71.88;98917.84;2619356;51;20597;-65
2022/06/06 04:55:45;;;;;;;6.82;6.20;;;;;;;17.66;72.13;98926.22;2619836;54;20566;-66
2022/06/06 04:58:16;;;;;;;7.57;6.47;;;;;;;17.61;72.26;98934.13;2620433;54;20574;-66
2022/06/06 05:00:47;;;;;;;8.02;6.30;;;;;;;17.59;72.45;98937.03;2621329;54;20030;-67
2022/06/06 05:03:17;;;;;;;8.88;6.05;;;;;;;17.60;72.38;98936.00;2620945;54;20038;-66
2022/06/06 05:05:59;;;;;;;7.50;5.85;;;;;;;17.66;72.55;98939.59;2619333;39;20431;-66
2022/06/06 05:08:46;;;;;;;7.88;5.80;;;;;;;17.72;72.02;98933.31;2619064;54;20057;-67
2022/06/06 05:11:36;;;;;;;10.38;6.60;;;;;;;17.83;72.05;98935.16;2618964;54;20085;-66
2022/06/06 05:14:18;;;;;;;7.30;6.53;;;;;;;17.89;71.29;98936.09;2618413;54;20547;-65
2022/06/06 05:17:02;;;;;;;6.45;5.85;;;;;;;17.91;71.16;98940.13;2619094;54;20042;-66
2022/06/06 05:19:47;;;;;;;8.43;7.18;;;;;;;17.90;71.20;98943.88;2622963;54;20033;-65
2022/06/06 05:22:43;;;;;;;7.43;6.65;;;;;;;18.04;70.62;98947.06;2622105;47;20034;-66
2022/06/06 05:25:30;;;;;;;8.73;5.93;;;;;;;18.07;70.40;98955.44;2621907;54;20039;-66
2022/06/06 05:28:18;;;;;;;7.50;6.28;;;;;;;18.10;69.85;98956.84;2621996;54;20026;-66
2022/06/06 05:30:55;;;;;;;9.77;6.40;;;;;;;18.11;70.00;98955.78;2623629;46;20133;-66
2022/06/06 05:33:33;;;;;;;6.85;5.90;;;;;;;18.13;70.14;98955.56;2623139;54;20031;-67
2022/06/06 05:36:19;;;;;;;6.40;5.80;;;;;;;18.22;70.06;98956.81;2622715;47;20023;-65
2022/06/06 05:39:11;;;;;;;6.95;5.60;;;;;;;18.28;69.92;98963.88;2622115;47;20538;-66
2022/06/06 05:41:59;;;;;;;6.78;6.07;;;;;;;18.40;69.04;98969.97;2622875;54;20034;-67
2022/06/06 05:44:44;;;;;;;7.22;6.32;;;;;;;18.51;69.00;98974.47;2622897;54;20038;-67
2022/06/06 05:47:22;;;;;;;10.45;7.18;;;;;;;18.65;68.60;98966.13;2623278;39;20404;-66
2022/06/06 05:50:04;;;;;;;7.60;6.05;;;;;;;18.59;68.05;98967.94;2620519;54;20026;-67
2022/06/06 05:52:59;;;;;;;6.75;5.40;;;;;;;18.62;67.60;98962.09;2619107;39;20462;-68
2022/06/06 05:55:44;;;;;;;7.47;6.35;;;;;;;18.65;67.16;98964.28;2618768;39;20419;-67
2022/06/06 05:58:34;;;;;;;9.57;7.13;;;;;;;18.84;66.92;98958.75;2618271;54;20154;-67
2022/06/06 06:01:20;;;;;;;8.23;6.32;;;;;;;18.94;67.00;98959.72;2618526;54;20031;-67
2022/06/06 06:04:10;;;;;;;6.95;5.70;;;;;;;19.11;66.56;98962.41;2618626;54;20038;-65
2022/06/06 06:06:49;;;;;;;7.63;6.78;;;;;;;19.19;66.24;98961.19;2622108;54;20030;-67
2022/06/06 06:09:36;;;;;;;9.45;6.18;;;;;;;19.17;65.88;98960.63;2621955;54;20645;-65
2022/06/06 06:12:20;;;;;;;7.57;6.32;;;;;;;19.17;65.58;98961.41;2619357;54;20054;-66
2022/06/06 06:15:05;;;;;;;7.60;5.45;;;;;;;18.90;65.33;98972.00;2619270;47;20030;-67
2022/06/06 06:17:40;;;;;;;7.03;5.88;;;;;;;18.80;65.59;98969.13;2621914;54;20042;-66
2022/06/06 06:20:13;;;;;;;7.05;5.82;;;;;;;18.73;65.53;98974.63;2621840;54;20030;-67
2022/06/06 06:22:46;;;;;;;9.18;5.63;;;;;;;18.84;65.79;98982.84;2623760;39;20185;-66
2022/06/06 06:25:18;;;;;;;6.25;5.55;;;;;;;18.93;65.78;98979.50;2620870;54;20542;-66
2022/06/06 06:27:49;;;;;;;9.10;5.85;;;;;;;18.88;65.17;98981.31;2620627;54;20038;-67
2022/06/06 06:30:21;;;;;;;7.32;5.43;;;;;;;18.96;65.17;98988.94;2620517;39;20434;-65
2022/06/06 06:33:13;;;;;;;6.57;5.10;;;;;;;19.08;64.82;98981.66;2619559;54;20018;-65
2022/06/06 06:35:54;;;;;;;6.78;5.25;;;;;;;19.16;65.24;98983.91;2618025;47;20027;-66
2022/06/06 06:38:43;;;;;;;12.55;5.43;;;;;;;19.24;64.76;98985.38;2619887;54;20045;-66
2022/06/06 06:41:23;;;;;;;7.18;5.63;;;;;;;19.27;64.33;98985.72;2623243;54;20030;-67
2022/06/06 06:44:02;;;;;;;10.35;6.43;;;;;;;19.21;64.02;98988.53;2619190;54;20031;-66
2022/06/06 13:59:36;;;;;;;3.58;1.83;;;;;;;25.40;32.72;98782.94;2609318;47;20029;-66
2022/06/06 14:02:20;;;;;;;6.00;1.38;;;;;;;25.30;32.52;98804.69;2620898;54;20030;-67
2022/06/06 14:05:13;;;;;;;3.40;0.90;;;;;;;24.85;33.62;98797.88;2619772;54;20046;-66
2022/06/06 14:08:00;;;;;;;5.68;1.00;;;;;;;24.43;34.23;98785.84;2619122;54;20102;-65
2022/06/06 14:10:46;;;;;;;1.35;0.98;;;;;;;24.83;33.86;98795.47;2619491;54;20581;-65
2022/06/06 14:13:26;;;;;;;2.47;1.27;;;;;;;24.96;33.35;98791.28;2619357;39;20430;-66
2022/06/06 14:16:27;;;;;;;5.18;0.82;;;;;;;24.56;32.46;98787.88;2619554;54;20052;-66
2022/06/06 14:19:08;;;;;;;2.20;1.10;;;;;;;24.77;32.50;98787.69;2619512;54;20055;-65
2022/06/06 14:21:40;;;;;;;2.63;0.73;;;;;;;24.74;32.45;98775.56;2619424;54;20033;-66
2022/06/06 14:24:16;;;;;;;2.67;1.27;;;;;;;24.98;32.33;98778.25;2620549;54;20540;-66
2022/06/06 14:26:54;;;;;;;2.88;1.10;;;;;;;25.13;32.82;98777.31;2623372;54;20038;-66
2022/06/06 14:29:30;;;;;;;1.25;1.10;;;;;;;25.26;32.09;98765.78;2624825;54;20036;-66
2022/06/06 14:32:24;;;;;;;2.92;1.30;;;;;;;25.36;31.49;98798.16;2624070;54;20058;-66
2022/06/06 14:34:56;;;;;;;1.67;0.80;;;;;;;25.18;30.89;98782.66;2623366;47;20058;-67
2022/06/06 14:37:32;;;;;;;5.45;1.13;;;;;;;25.17;31.25;98772.94;2619175;47;20026;-66
2022/06/06 14:40:04;;;;;;;1.63;0.80;;;;;;;25.21;30.98;98768.56;2619686;54;20046;-65
2022/06/06 14:42:36;;;;;;;1.15;0.90;;;;;;;25.10;31.23;98778.69;2618983;54;20034;-67
2022/06/06 14:45:13;;;;;;;4.90;1.10;;;;;;;25.24;30.80;98773.41;2619320;54;20029;-66
2022/06/06 14:47:56;;;;;;;1.63;0.75;;;;;;;24.85;30.67;98768.94;2619265;54;20026;-65
2022/06/06 14:50:50;;;;;;;4.78;1.40;;;;;;;24.78;30.87;98786.59;2619217;47;20023;-67
2022/06/06 14:53:26;;;;;;;7.88;0.95;;;;;;;24.98;31.49;98786.38;2620360;54;20026;-67
2022/06/06 14:56:00;;;;;;;7.03;0.98;;;;;;;24.85;31.11;98790.56;2620338;54;20174;-66
2022/06/06 14:58:33;;;;;;;4.75;1.17;;;;;;;24.57;31.47;98781.38;2620103;54;20023;-67
2022/06/06 15:01:03;;;;;;;;;;;;;;;24.55;31.73;98780.88;2620785;54;20045;-65
2022/06/06 15:03:42;;;;;;;2.45;1.33;;;;;;;24.95;31.45;98770.75;2621020;54;19982;-66
2022/06/06 15:06:15;;;;;;;4.40;1.00;;;;;;;25.06;31.21;98774.13;2621587;39;20430;-67
2022/06/06 15:08:54;;;;;;;4.38;1.10;;;;;;;25.13;31.49;98780.81;2620769;54;20042;-67
2022/06/06 15:11:29;;;;;;;5.90;0.90;;;;;;;25.22;31.09;98780.19;2622259;54;20046;-66
2022/06/06 15:14:02;;;;;;;4.13;1.40;;;;;;;25.23;31.06;98763.69;2622016;39;20450;-66
2022/06/06 15:16:34;;;;;;;7.10;1.10;;;;;;;25.40;30.38;98766.72;2622305;54;20038;-65
2022/06/06 15:19:10;;;;;;;3.28;0.90;;;;;;;25.50;30.80;98773.06;2626051;47;20536;-66
2022/06/06 15:21:44;;;;;;;5.30;1.05;;;;;;;25.52;30.03;98763.56;2626191;54;20026;-65
2022/06/06 15:24:20;;;;;;;8.07;0.93;;;;;;;25.11;30.88;98774.91;2625428;54;20079;-66
2022/06/06 15:27:29;;;;;;;3.70;0.90;;;;;;;25.27;31.63;98766.59;2624982;54;20041;-65
2022/06/06 15:30:07;;;;;;;4.50;0.90;;;;;;;25.45;31.37;98766.63;2623364;47;20018;-66
2022/06/06 15:32:45;;;;;;;0.88;0.70;;;;;;;25.19;32.04;98766.16;2623757;54;20098;-66
2022/06/06 15:35:41;;;;;;;7.35;0.93;;;;;;;25.02;33.06;98765.78;2623671;54;20038;-65
2022/06/06 15:38:35;;;;;;;4.18;1.05;;;;;;;25.07;32.24;98773.84;2623050;47;20038;-67
2022/06/06 15:41:17;;;;;;;7.50;1.48;;;;;;;24.98;32.24;98772.03;2624672;54;20027;-65
2022/06/06 15:43:59;;;;;;;3.97;1.00;;;;;;;24.81;32.37;98764.38;2624761;54;20036;-68
2022/06/06 15:46:44;;;;;;;7.53;1.17;;;;;;;24.87;32.03;98755.16;2625694;54;20057;-64
2022/06/06 15:49:29;;;;;;;6.82;1.70;;;;;;;25.13;32.45;98756.47;2623869;54;20046;-67
2022/06/06 15:52:17;;;;;;;10.65;1.95;;;;;;;25.13;32.72;98761.88;2624565;47;20022;-66
2022/06/06 15:54:54;;;;;;;7.80;2.03;;;;;;;25.05;32.50;98762.50;2624723;47;20034;-66
2022/06/06 15:57:31;;;;;;;5.38;1.63;;;;;;;24.96;32.51;98762.34;2625028;54;20094;-65
2022/06/06 16:00:19;;;;;;;3.65;1.48;;;;;;;25.08;32.63;98759.22;2625649;54;20023;-65
2022/06/06 16:03:06;;;;;;;4.05;1.48;;;;;;;25.20;32.19;98756.94;2625527;47;20023;-66
2022/06/06 16:05:40;;;;;;;2.45;1.10;;;;;;;25.45;32.58;98750.41;2626525;54;20030;-66
2022/06/06 16:08:37;;;;;;;4.40;1.00;;;;;;;25.35;31.73;98755.97;2621299;54;20030;-66
2022/06/06 16:11:17;;;;;;;2.60;1.10;;;;;;;25.12;32.75;98749.47;2619029;54;20566;-66
2022/06/06 16:14:01;;;;;;;2.58;1.02;;;;;;;25.29;32.33;98764.41;2619341;54;20046;-66
2022/06/06 16:16:35;;;;;;;3.03;1.30;;;;;;;25.38;32.56;98751.84;2619417;54;20037;-68
2022/06/06 16:19:14;;;;;;;6.03;4.40;;;;;;;25.55;32.43;98762.97;2619604;54;20117;-68
2022/06/06 16:21:51;;;;;;;3.08;1.67;;;;;;;25.44;32.25;98751.50;2619047;54;20031;-67
2022/06/06 16:24:27;;;;;;;2.85;1.00;;;;;;;25.21;32.23;98755.03;2619109;54;20038;-66
2022/06/06 16:27:03;;;;;;;3.90;0.80;;;;;;;24.59;32.95;98767.59;2618826;54;20545;-66
2022/06/06 16:29:38;;;;;;;3.63;1.30;;;;;;;24.59;33.45;98760.28;2618269;54;20027;-67
2022/06/06 16:32:28;;;;;;;3.45;1.92;;;;;;;24.39;33.46;98765.88;2618407;54;20026;-67
2022/06/06 16:35:04;;;;;;;6.47;3.67;;;;;;;24.34;34.10;98760.50;2618257;49;20034;-65
2022/06/06 16:37:59;;;;;;;5.03;1.95;;;;;;;24.55;33.61;98753.84;2618131;54;20038;-67
2022/06/06 16:40:57;;;;;;;9.07;3.58;;;;;;;25.05;33.28;98748.97;2618697;54;20039;-66
2022/06/06 16:49:46;;;;;;;4.32;3.22;;;;;;;24.63;32.97;98758.63;2620325;54;20030;-66
2022/06/06 16:52:22;;;;;;;8.98;4.20;;;;;;;24.39;33.22;98755.09;2618932;47;20049;-66
2022/06/06 16:54:54;;;;;;;5.28;3.13;;;;;;;;;;2620057;39;20622;-66
2022/06/06 16:57:35;;;;;;;2.97;1.90;;;;;;;23.88;33.99;98752.75;2619425;54;20058;-65
2022/06/06 17:00:09;;;;;;;7.68;4.80;;;;;;;23.87;34.32;98745.75;2618788;54;20526;-67
2022/06/06 17:02:53;;;;;;;6.95;3.67;;;;;;;23.82;34.12;98753.88;2619818;39;20429;-66
2022/06/06 17:08:51;;;;;;;5.00;2.03;;;;;;;23.71;34.52;98755.81;2617903;54;20042;-65
2022/06/06 17:11:36;;;;;;;6.85;4.05;;;;;;;23.73;34.65;98757.16;2619186;54;20034;-66
2022/06/06 17:14:17;;;;;;;10.48;6.85;;;;;;;23.93;33.88;98758.13;2619982;50;20037;-65
2022/06/06 17:17:15;;;;;;;2.97;1.05;;;;;;;23.75;34.12;98753.38;2618846;47;20026;-67
2022/06/06 17:19:48;;;;;;;2.95;1.23;;;;;;;23.63;34.79;98759.88;2619307;39;20482;-66
2022/06/06 17:22:31;;;;;;;2.00;1.35;;;;;;;23.59;34.10;98760.72;2619224;54;20038;-66
2022/06/06 17:25:02;;;;;;;3.50;2.70;;;;;;;23.26;34.60;98756.84;2619208;54;20034;-65
2022/06/06 17:28:05;;;;;;;5.22;2.03;;;;;;;23.24;34.45;98763.34;2619116;54;20030;-66
2022/06/06 17:30:50;;;;;;;3.25;1.38;;;;;;;23.33;34.35;98765.47;2618773;39;20490;-66
2022/06/06 17:33:26;;;;;;;4.20;1.20;;;;;;;23.46;34.62;98762.16;2618985;39;20443;-67
2022/06/06 17:36:13;;;;;;;2.08;1.48;;;;;;;23.43;34.78;98774.31;2619792;54;20038;-65
2022/06/06 17:38:46;;;;;;;3.47;1.73;;;;;;;23.64;34.13;98766.91;2619260;54;20037;-65
2022/06/06 17:41:22;;;;;;;3.78;1.88;;;;;;;23.66;34.16;98772.84;2619054;47;20039;-67
2022/06/06 17:44:10;;;;;;;4.20;1.38;;;;;;;23.68;33.11;98778.81;2619066;54;20038;-66
2022/06/06 17:46:50;;;;;;;1.65;1.55;;;;;;;24.26;32.82;98771.91;2619563;39;20473;-66
2022/06/06 17:49:40;;;;;;;3.45;1.95;;;;;;;24.31;32.26;98772.66;2618414;47;20062;-68
2022/06/06 17:52:27;;;;;;;2.53;1.42;;;;;;;24.75;31.60;98777.16;2618556;54;20562;-66
2022/06/06 17:55:08;;;;;;;2.80;1.25;;;;;;;25.25;30.97;98774.22;2619578;39;20523;-69
2022/06/06 17:57:47;;;;;;;2.40;1.15;;;;;;;25.58;30.29;98775.94;2618451;47;20033;-66
2022/06/06 18:00:21;;;;;;;1.52;1.42;;;;;;;25.38;30.32;98778.91;2618482;47;20019;-66
2022/06/06 18:03:22;;;;;;;2.55;1.13;;;;;;;25.16;30.52;98777.56;2619127;54;20038;-66
2022/06/06 18:06:19;;;;;;;1.83;1.10;;;;;;;24.94;30.92;98777.22;2619331;54;20042;-65
2022/06/06 18:09:42;;;;;;;1.23;0.90;;;;;;;24.36;31.66;98783.44;2619180;54;20129;-66
2022/06/06 18:12:37;;;;;;;6.93;0.85;;;;;;;23.90;31.76;98786.47;2618404;54;20030;-67
2022/06/06 18:15:19;;;;;;;1.92;0.70;;;;;;;23.38;32.80;98787.81;2618888;39;20464;-67
2022/06/06 18:17:53;;;;;;;0.88;0.60;;;;;;;22.85;33.23;98792.00;2618648;54;20038;-66
2022/06/06 18:20:33;;;;;;;4.45;0.80;;;;;;;22.53;34.13;98790.41;2619165;54;20038;-67
2022/06/06 18:23:10;;;;;;;1.33;0.80;;;;;;;22.31;34.45;98787.22;2618174;47;20053;-68
2022/06/06 18:25:43;;;;;;;4.80;1.15;;;;;;;22.17;34.91;98798.53;2619008;54;20022;-65
2022/06/06 18:28:20;;;;;;;1.77;1.10;;;;;;;22.09;34.55;98798.22;2619190;39;20874;-67
2022/06/06 18:30:52;;;;;;;5.35;1.63;;;;;;;21.96;34.51;98799.53;2618819;54;20023;-65
2022/06/06 18:33:27;;;;;;;4.43;1.13;;;;;;;21.74;34.83;98795.19;2619102;54;20162;-66
2022/06/06 18:35:59;;;;;;;4.30;0.90;;;;;;;21.63;35.71;98800.78;2618770;54;20145;-67
2022/06/06 18:38:35;;;;;;;3.28;1.40;;;;;;;21.66;35.81;98787.63;2618518;54;20086;-67
2022/06/06 18:41:07;;;;;;;4.70;1.60;;;;;;;21.63;35.85;98798.91;2618882;54;20030;-69
2022/06/06 18:43:39;;;;;;;5.55;1.10;;;;;;;21.57;35.51;98799.97;2618756;54;20037;-67
2022/06/06 18:46:16;;;;;;;2.50;1.00;;;;;;;21.47;36.07;98798.09;2618656;54;20038;-67
2022/06/06 18:48:48;;;;;;;3.95;1.20;;;;;;;21.40;35.90;98802.09;2618520;54;20306;-66
2022/06/06 18:51:21;;;;;;;2.85;1.80;;;;;;;21.32;36.02;98800.69;2619068;39;20506;-66
2022/06/06 18:53:57;;;;;;;3.10;1.00;;;;;;;21.26;35.97;98797.13;2618509;54;20038;-67
2022/06/06 18:56:30;;;;;;;5.53;1.23;;;;;;;21.28;36.18;98805.75;2618675;54;20050;-66
2022/06/06 18:59:04;;;;;;;1.50;1.30;;;;;;;21.22;36.59;98797.91;2618346;54;20035;-67
2022/06/06 19:01:39;;;;;;;2.55;0.80;;;;;;;21.05;36.97;98802.69;2618591;54;20061;-67
2022/06/06 19:04:15;;;;;;;1.20;1.05;;;;;;;21.01;36.71;98808.56;2618507;54;20038;-67
2022/06/06 19:07:03;;;;;;;1.50;0.93;;;;;;;20.99;36.93;98807.22;2618241;47;20026;-67
2022/06/06 19:09:38;;;;;;;1.77;1.00;;;;;;;20.96;37.38;98805.06;2618178;54;20034;-66
2022/06/06 19:12:20;;;;;;;2.75;0.90;;;;;;;20.90;37.03;98806.09;2618704;39;20459;-66
2022/06/06 19:14:54;;;;;;;0.98;0.75;;;;;;;20.90;37.03;98803.41;2618315;54;20037;-65
2022/06/06 19:17:26;;;;;;;1.92;1.30;;;;;;;20.94;37.26;98810.69;2618238;54;20034;-66
2022/06/06 19:20:20;;;;;;;1.50;1.20;;;;;;;20.96;37.17;98805.88;2618577;54;20538;-65
2022/06/06 19:22:56;;;;;;;2.00;1.63;;;;;;;20.98;37.33;98810.97;2618546;54;20034;-65
2022/06/06 19:25:35;;;;;;;13.32;1.40;;;;;;;20.95;37.15;98809.63;2618324;54;20042;-65
2022/06/06 19:28:08;;;;;;;1.00;0.80;;;;;;;20.92;37.62;98810.13;2618315;54;20039;-66
2022/06/06 19:30:40;;;;;;;4.10;1.85;;;;;;;20.83;37.16;98808.22;2619323;54;20030;-67
2022/06/06 19:33:27;;;;;;;2.78;1.00;;;;;;;20.65;37.33;98814.78;2623828;54;20035;-66
2022/06/06 19:35:59;;;;;;;3.10;1.50;;;;;;;20.61;37.73;98813.69;2620201;54;20027;-65
2022/06/06 19:38:30;;;;;;;6.93;1.75;;;;;;;20.58;37.93;98809.66;2617733;47;20035;-67
2022/06/06 19:41:26;;;;;;;3.05;1.23;;;;;;;20.49;37.63;98816.53;2618475;54;20145;-68
2022/06/06 19:43:58;;;;;;;1.95;0.70;;;;;;;20.44;38.29;98811.09;2618451;54;20042;-67
2022/06/06 19:46:33;;;;;;;3.88;1.10;;;;;;;20.41;38.35;98816.97;2618243;54;20041;-66
2022/06/06 19:49:05;;;;;;;1.73;0.80;;;;;;;20.40;37.97;98818.06;2618618;39;20450;-65
2022/06/06 19:51:38;;;;;;;1.10;1.00;;;;;;;20.38;38.52;98817.53;2617973;54;20026;-66
2022/06/06 19:54:13;;;;;;;3.28;1.00;;;;;;;20.39;38.57;98824.50;2618091;54;20041;-67